High Rock, North Carolina
Current Conditions -  °F | °C
As of 11:15 AM on Wednesday 26 Nov 2014 (Local Time) from KHBI Reporting Station
Moderate Rain Moderate Rain  
Wind Chill: 37°   Ceiling: 1000
Heat Index: 43°   Visibility: 10mi
Dew Point: 43°   Wind: 10mph
Humidity: 100%   Direction: 350°N
Pressure: 29.98"   Gusts: NA
Location:  35.6015°N, 80.0858°W
Report Text: KHBI 261615Z AUTO 35009KT 10SM RA BKN010 OVC015 06/06 A2998 RMK AO2 P0001 T00600060
Loading
Personal Weather Stations






























Interactive Weather Map New forecast layout! Learn more

10-Day Weather Forecast

Advertisements
Track Severe Weather on mobile